Porterville, CA (93257)

10:32 PM PDT on September 20, 2014 (GMT -0700)
MesoWest | Change Station
CLOSE
Current Station
Personal Weather Station
Location: Poplar, CA
Elevation: 462 ft
Nearby Weather Stations

Elev 462 ft 36.03 °N, 119.06 °W | Updated 2 hours ago

Clear
Clear
°F
Feels Like °F
N
4.0
Wind Variable Wind from WSW

Today
High -- | Low -- °F
--% Chance of Precip.
Yesterday
High -- | Low -- °F
Precip. -- in
6:42 AM 6:55 PM
Waning Crescent, 8% visible
Pressure 29.88 in
Visibility 10.0 miles
Clouds Clear
Dew Point Not available.
Humidity Not available.
Rainfall -9999.00 in
Snow Depth 1 in , 0 in , 0 in
UV 0 out of 12
Pollen 7.10 out of 12
Ozone Good
PM2.5 Moderate
Flu Activity Not available.
METAR KPTV 210515Z 28004KT 10SM CLR 25/13 A2988 RMK AO1

More Conditions Fewer Conditions

Pressure 29.88 in
Visibility 10.0 miles
Clouds Clear
Dew Point Not available.
Humidity Not available.
Rainfall -9999.00 in
Snow Depth 1 in , 0 in , 0 in
UV 0 out of 12
Pollen 7.10 out of 12
Ozone Good
PM2.5 Moderate
Flu Activity Not available.
METAR KPTV 210515Z 28004KT 10SM CLR 25/13 A2988 RMK AO1

More Conditions Fewer Conditions

10-Day Weather Forecast

Almanac

Astronomy

Sep. 20, 2014 Rise Set
Actual Time 6:42 AM PDT 6:55 PM PDT
Civil Twilight 6:16 AM PDT 7:21 PM PDT
Nautical Twilight 5:46 AM PDT 7:51 PM PDT
Astronomical Twilight 5:16 AM PDT 8:21 PM PDT
Moon 3:30 AM PDT (9/20) 4:57 PM PDT (9/20)
Length of Visible Light 13h 04m
Length of Day
12h 13m
Tomorrow will be 2m 16s shorter.
Waning Crescent, 8% of the Moon is Illuminated
Sep 21
Waning Crescent
Sep 24
New
Oct 1
First Quarter
Oct 8
Full
Oct 15
Last Quarter

Yesterday's Extremes

State Highs State Lows

Community

WunderPhotos

Upload Photos

1,755,090 photos uploaded!

Nearby

Air Quality

  Air Quality AQ Index Pollutant
Yesterday Moderate
PM2.5
Yesterday Good
OZONE
Current Moderate
PM2.5
Current Good
OZONE
Saturday Moderate
PM2.5
Sunday Moderate
OZONE
Monday Moderate
OZONE
Tuesday Moderate
OZONE
Wednesday Moderate
OZONE
Thursday Moderate
OZONE

Snow Depth

Station Depth Elevation
CSS Lab 1 in 6900 ft
Adin Mountain 1 in 6200 ft
Echo Peak 0 in 7800 ft
Tahoe City Cross 0 in 6750 ft
Summit Meadow 1 in 9122 ft

Earthquake Activity

City Distance Mag. Time & Date
Inyokern, California 64 miles 3.1 5:33 PM PDT
2014-09-19
Corcoran, California 35 miles 2.9 3:59 PM PDT
2014-09-18
Minimum magnitude displayed is 2.5.

Coastal Water Temperatures

Place Temperature
No Stations Reporting

Nearby Weather Stations